TimeCDT,TemperatureF,Dew PointF,Humidity,Sea Level PressureIn,VisibilityMPH,Wind Direction,Wind SpeedMPH,Gust SpeedMPH,PrecipitationIn,Events,Conditions,WindDirDegrees,DateUTC
12:53 AM,57.0,55.0,93,29.94,10.0,South,5.8,-,N/A,,Clear,180,2013-10-01 05:53:00
1:53 AM,57.0,55.9,96,29.96,10.0,SW,3.5,-,N/A,,Clear,220,2013-10-01 06:53:00
2:53 AM,57.9,57.0,97,29.96,8.0,SSW,4.6,-,N/A,,Clear,210,2013-10-01 07:53:00
3:39 AM,57.2,57.2,100,29.97,5.0,SSW,4.6,-,N/A,,Scattered Clouds,200,2013-10-01 08:39:00
3:51 AM,57.2,57.2,100,29.97,4.0,South,3.5,-,N/A,,Mostly Cloudy,190,2013-10-01 08:51:00
3:53 AM,57.0,57.0,100,29.96,4.0,South,3.5,-,N/A,,Mostly Cloudy,180,2013-10-01 08:53:00
4:43 AM,59.0,59.0,100,29.97,2.0,South,6.9,-,N/A,,Overcast,190,2013-10-01 09:43:00
4:50 AM,59.0,59.0,100,29.98,1.0,South,6.9,-,N/A,,Overcast,190,2013-10-01 09:50:00
4:53 AM,59.0,59.0,100,29.97,1.0,SSW,8.1,-,N/A,,Overcast,200,2013-10-01 09:53:00
5:01 AM,59.0,59.0,100,29.98,0.8,SSW,8.1,-,N/A,,Overcast,200,2013-10-01 10:01:00
5:53 AM,60.1,60.1,100,29.99,0.8,SSW,9.2,-,N/A,,Mist,210,2013-10-01 10:53:00
6:42 AM,60.8,60.8,100,30.00,1.2,SSW,8.1,-,N/A,,Overcast,210,2013-10-01 11:42:00
6:53 AM,60.1,60.1,100,30.00,1.0,SSW,8.1,-,N/A,,Overcast,210,2013-10-01 11:53:00
7:53 AM,60.1,60.1,100,30.01,2.0,SSW,11.5,-,N/A,,Overcast,210,2013-10-01 12:53:00
8:14 AM,60.8,60.8,100,30.01,3.0,SSW,10.4,-,N/A,,Overcast,210,2013-10-01 13:14:00
8:53 AM,61.0,61.0,100,30.01,4.0,SSW,9.2,-,N/A,,Overcast,200,2013-10-01 13:53:00
9:10 AM,62.6,60.8,94,30.02,5.0,SSW,10.4,-,N/A,,Overcast,200,2013-10-01 14:10:00
9:53 AM,63.0,61.0,93,30.02,7.0,SW,11.5,-,N/A,,Overcast,220,2013-10-01 14:53:00
10:13 AM,64.4,60.8,88,30.02,8.0,SSW,11.5,-,N/A,,Overcast,200,2013-10-01 15:13:00
10:53 AM,66.0,62.1,87,30.01,10.0,SSW,11.5,-,N/A,,Overcast,200,2013-10-01 15:53:00
11:32 AM,66.2,62.6,88,30.00,10.0,SSW,12.7,-,N/A,,Overcast,200,2013-10-01 16:32:00
11:53 AM,68.0,62.1,81,29.99,10.0,SSW,12.7,-,0.01,,Overcast,210,2013-10-01 16:53:00
12:53 PM,73.0,62.1,68,29.98,10.0,SSW,16.1,21.9,N/A,,Overcast,210,2013-10-01 17:53:00
1:32 PM,73.4,62.6,69,29.97,10.0,SW,11.5,-,N/A,,Mostly Cloudy,220,2013-10-01 18:32:00
1:53 PM,75.0,62.1,64,29.96,10.0,SW,15.0,-,N/A,,Mostly Cloudy,220,2013-10-01 18:53:00
2:53 PM,77.0,62.1,60,29.94,10.0,SW,16.1,26.5,N/A,,Scattered Clouds,220,2013-10-01 19:53:00
3:53 PM,77.0,62.1,60,29.93,10.0,SSW,12.7,21.9,N/A,,Partly Cloudy,210,2013-10-01 20:53:00
4:53 PM,77.0,61.0,58,29.93,10.0,SW,15.0,20.7,N/A,,Clear,220,2013-10-01 21:53:00
5:53 PM,75.9,61.0,60,29.94,10.0,SW,12.7,19.6,N/A,,Clear,220,2013-10-01 22:53:00
6:53 PM,71.1,62.1,73,29.95,10.0,SW,6.9,-,N/A,,Clear,230,2013-10-01 23:53:00
7:53 PM,69.1,61.0,75,29.96,10.0,SW,5.8,-,N/A,,Clear,220,2013-10-02 00:53:00
8:53 PM,68.0,61.0,78,29.97,10.0,SSW,3.5,-,N/A,,Partly Cloudy,200,2013-10-02 01:53:00
9:53 PM,68.0,62.1,81,29.98,10.0,SW,8.1,-,N/A,,Partly Cloudy,230,2013-10-02 02:53:00
10:53 PM,66.0,62.1,87,29.99,10.0,WSW,8.1,-,N/A,,Clear,240,2013-10-02 03:53:00
11:53 PM,64.9,63.0,93,29.99,8.0,WSW,8.1,-,N/A,,Clear,240,2013-10-02 04:53:00